Juneau International Airport Juneau US
ICAO: PAJN
IATA: JNU
Category: Medium
Scheduled Services:

Elevation: 21 ft
TransAlt. 18000 ft.

Airport Communications:
ATIS:135.2
TWEB:114
ANCHORAGE CNTR:133.9
CTAF:118.7
RDO:122.2
GND:121.9
RDO:122.15
NAT GD OPS:124.65
TWR:118.7
UNICOM:122.95

PAJN Zoom In..

If Map Doesn't Load, Click Here

Runways:

(A) RW 08 length 8457 ft width 150 ft
---- / hdg 85

(B) RW 26 length 8457 ft width 150 ft
---- / hdg 265

Location; PAJN
Day. 23 / Time. 21.53 Zulu
* Altimeter: 29.86
* Temperature: 11° c. 51.8°f.
* Wind from: 080° Speed 10 kn.
Dewpoint: 11° c.
Visibility: 6 Statute Miles.
Clouds: Few 400 ft.
Clouds: Broken 2300 ft.
Clouds: Overcast 3100 ft.
Conditions: Light Rain.Conditions: Mist.

PAJN 232153Z 08010KT 6SM -RA BR FEW004 BKN023 OVC031 11/11 A2986 RMK AO2 SLP111 P0000 T01110106


Wind From 080°
Speed 10 kn.

 
 
jpsmedia.com for Web Design worldairports.se 2018   terms of use